America — WD15630 — position and weather

sailwx.info

Track history (hours):
 
Tides and Currents Weather Stations Pressure Air Temp Water Temp Dewpoint Dewpoint Depression Visibility Wind Speed Wind Dir Waves Ship Positions

America

Last reported at 2018-Jun-18 20:10 UTC. Time now 2018-Jun-25 14:17 UTC.
Position N 31°59' W 091°07'.

Length 90 m; draft 4.7 m.

Type: Passenger vessel. MMSI: 367710540.

Date/timePositionNaut miles runAvg speedWind from/ knotsBaromVisibWave heightAir tempDewpointWater temp
2018-Jun-18 20:10N 31°59' W 091°07'613.9
2018-Jun-18 19:46N 32°04' W 091°03'414.3
2018-Jun-18 19:30N 32°07' W 091°06'511.0
2018-Jun-18 19:01N 32°09' W 091°00'714.5
2018-Jun-18 18:31N 32°16' W 090°58'612.4
2018-Jun-18 18:00N 32°20' W 090°54'1 1.4
2018-Jun-18 17:30N 32°21' W 090°53'0 0.3
2018-Jun-18 16:59N 32°21' W 090°53'0 0.0
2018-Jun-18 16:29N 32°21' W 090°53'0 0.0
2018-Jun-18 15:59N 32°21' W 090°53'0 0.0
2018-Jun-18 15:19N 32°21' W 090°53'0 0.0
2018-Jun-18 14:58N 32°21' W 090°53'0 0.0
2018-Jun-18 14:28N 32°21' W 090°53'0 0.0
2018-Jun-18 13:58N 32°21' W 090°53'0 0.0
2018-Jun-18 13:29N 32°21' W 090°53'0 0.0
2018-Jun-18 12:58N 32°21' W 090°53'0 0.0
2018-Jun-18 12:28N 32°21' W 090°53'0 0.0
2018-Jun-18 11:58N 32°21' W 090°53'0 0.0
2018-Jun-18 11:25N 32°21' W 090°53'0 0.0
2018-Jun-18 10:58N 32°21' W 090°53'0 0.0
2018-Jun-18 10:28N 32°21' W 090°53'0 0.0
2018-Jun-18 09:58N 32°21' W 090°53'0 0.0
2018-Jun-18 09:28N 32°21' W 090°53'0 0.0
2018-Jun-18 08:58N 32°21' W 090°53'0 0.0
2018-Jun-18 08:28N 32°21' W 090°53'0 0.0
2018-Jun-18 07:58N 32°21' W 090°53'0 0.0
2018-Jun-18 07:28N 32°21' W 090°53'0 0.0
2018-Jun-18 06:58N 32°21' W 090°53'0 0.0
2018-Jun-18 06:19N 32°21' W 090°53'0 0.0
2018-Jun-18 05:58N 32°21' W 090°53'0 0.0
2018-Jun-18 05:28N 32°21' W 090°53'0 0.0
2018-Jun-18 04:58N 32°21' W 090°53'0 0.0
2018-Jun-18 04:28N 32°21' W 090°53'0 0.0
2018-Jun-18 03:58N 32°21' W 090°53'0 0.0
2018-Jun-18 03:28N 32°21' W 090°53'0 0.0
2018-Jun-18 02:58N 32°21' W 090°53'0 0.0
2018-Jun-18 02:28N 32°21' W 090°53'0 0.0
2018-Jun-18 01:58N 32°21' W 090°53'0 0.0
2018-Jun-18 01:28N 32°21' W 090°53'0 0.0
2018-Jun-18 00:58N 32°21' W 090°53'0 0.0
2018-Jun-18 00:28N 32°21' W 090°53'0 0.0
2018-Jun-17 23:58N 32°21' W 090°53'0 0.0
2018-Jun-17 23:28N 32°21' W 090°53'0 0.0
2018-Jun-17 22:58N 32°21' W 090°53'0 0.0
2018-Jun-17 22:28N 32°21' W 090°53'0 0.0
2018-Jun-17 21:58N 32°21' W 090°53'0 0.0
2018-Jun-17 21:28N 32°21' W 090°53'0 0.0
2018-Jun-17 20:58N 32°21' W 090°53'0 0.0
2018-Jun-17 20:28N 32°21' W 090°53'0 0.0
2018-Jun-17 19:58N 32°21' W 090°53'0 0.0
2018-Jun-17 19:28N 32°21' W 090°53'0 0.0
2018-Jun-17 18:58N 32°21' W 090°53'0 0.0
2018-Jun-17 18:28N 32°21' W 090°53'0 0.0
2018-Jun-17 17:58N 32°21' W 090°53'0 0.0
2018-Jun-17 17:28N 32°21' W 090°53'1 1.2
2018-Jun-17 17:00N 32°21' W 090°53'4 7.2
2018-Jun-17 16:30N 32°21' W 090°58'510.1
2018-Jun-17 16:00N 32°25' W 091°01'612.3
2018-Jun-17 15:31N 32°29' W 091°07'611.4
2018-Jun-17 15:00N 32°34' W 091°07'  
2018-Jun-14 04:34N 32°52' W 091°05'0 8.1
2018-Jun-14 04:30N 32°52' W 091°06'12 5.2
2018-Jun-14 02:09N 32°40' W 091°08'4 7.9
2018-Jun-14 01:36N 32°36' W 091°08'1 9.0
2018-Jun-14 01:27N 32°35' W 091°07'4 8.5
2018-Jun-14 01:00N 32°31' W 091°06'4 8.3
2018-Jun-14 00:30N 32°27' W 091°05'5 9.1
2018-Jun-14 00:00N 32°25' W 090°60'4 8.3
2018-Jun-13 23:30N 32°21' W 090°59'4 8.0
2018-Jun-13 23:00N 32°21' W 090°55'1 2.8
2018-Jun-13 22:30N 32°21' W 090°53'0 0.2
2018-Jun-13 22:01N 32°21' W 090°53'0 0.0
2018-Jun-13 21:28N 32°21' W 090°53'0 0.0
2018-Jun-13 20:58N 32°21' W 090°53'0 0.0
2018-Jun-13 20:28N 32°21' W 090°53'0 0.0
2018-Jun-13 19:58N 32°21' W 090°53'0 0.0
2018-Jun-13 19:28N 32°21' W 090°53'0 0.0
2018-Jun-13 19:01N 32°21' W 090°53'0 0.0
2018-Jun-13 18:28N 32°21' W 090°53'0 0.0
2018-Jun-13 17:58N 32°21' W 090°53'0 0.0
2018-Jun-13 17:28N 32°21' W 090°53'0 0.0
2018-Jun-13 16:58N 32°21' W 090°53'0 0.0
2018-Jun-13 16:28N 32°21' W 090°53'0 0.0
2018-Jun-13 15:58N 32°21' W 090°53'0 0.0
2018-Jun-13 15:28N 32°21' W 090°53'0 0.0
2018-Jun-13 14:58N 32°21' W 090°53'0 0.0
2018-Jun-13 14:30N 32°21' W 090°53'0 0.0
2018-Jun-13 13:58N 32°21' W 090°53'0 0.0
2018-Jun-13 13:31N 32°21' W 090°53'0 0.0
2018-Jun-13 13:00N 32°21' W 090°53'0 0.0
2018-Jun-13 12:24N 32°21' W 090°53'0 1.1
2018-Jun-13 12:00N 32°21' W 090°53'2 5.0
2018-Jun-13 11:30N 32°19' W 090°55'3 7.0
2018-Jun-13 11:00N 32°16' W 090°58'3 6.6
2018-Jun-13 10:30N 32°13' W 090°59'4 7.0
2018-Jun-13 10:00N 32°10' W 091°00'3 6.1
2018-Jun-13 09:30N 32°07' W 091°02'3 6.4
2018-Jun-13 09:00N 32°08' W 091°06'4 6.1
2018-Jun-13 08:24N 32°05' W 091°04'3 6.8
2018-Jun-13 08:00N 32°02' W 091°04'4 7.5
2018-Jun-13 07:30N 31°59' W 091°07'4 7.2
2018-Jun-13 06:59N 31°58' W 091°11'3 7.2
2018-Jun-13 06:30N 31°55' W 091°12'4 7.4
2018-Jun-13 06:00N 31°52' W 091°15'4 7.5
2018-Jun-13 05:30N 31°51' W 091°19'4 6.8
2018-Jun-13 04:51N 31°47' W 091°21'3 7.3
2018-Jun-13 04:30N 31°45' W 091°22'  
Track history (hours):
 
Tides and Currents Weather Stations Pressure Air Temp Water Temp Dewpoint Dewpoint Depression Visibility Wind Speed Wind Dir Waves Ship Positions

America

Last reported at 2018-Jun-18 20:10 UTC. Time now 2018-Jun-25 14:17 UTC.
Position N 31°59' W 091°07'.

Length 90 m; draft 4.7 m.

Type: Passenger vessel. MMSI: 367710540.

Date/timePositionNaut miles runAvg speedWind from/ knotsBaromVisibWave heightAir tempDewpointWater temp
2018-Jun-18 20:10N 31°59' W 091°07'613.9
2018-Jun-18 19:46N 32°04' W 091°03'414.3
2018-Jun-18 19:30N 32°07' W 091°06'511.0
2018-Jun-18 19:01N 32°09' W 091°00'714.5
2018-Jun-18 18:31N 32°16' W 090°58'612.4
2018-Jun-18 18:00N 32°20' W 090°54'1 1.4
2018-Jun-18 17:30N 32°21' W 090°53'0 0.3
2018-Jun-18 16:59N 32°21' W 090°53'0 0.0
2018-Jun-18 16:29N 32°21' W 090°53'0 0.0
2018-Jun-18 15:59N 32°21' W 090°53'0 0.0
2018-Jun-18 15:19N 32°21' W 090°53'0 0.0
2018-Jun-18 14:58N 32°21' W 090°53'0 0.0
2018-Jun-18 14:28N 32°21' W 090°53'0 0.0
2018-Jun-18 13:58N 32°21' W 090°53'0 0.0
2018-Jun-18 13:29N 32°21' W 090°53'0 0.0
2018-Jun-18 12:58N 32°21' W 090°53'0 0.0
2018-Jun-18 12:28N 32°21' W 090°53'0 0.0
2018-Jun-18 11:58N 32°21' W 090°53'0 0.0
2018-Jun-18 11:25N 32°21' W 090°53'0 0.0
2018-Jun-18 10:58N 32°21' W 090°53'0 0.0
2018-Jun-18 10:28N 32°21' W 090°53'0 0.0
2018-Jun-18 09:58N 32°21' W 090°53'0 0.0
2018-Jun-18 09:28N 32°21' W 090°53'0 0.0
2018-Jun-18 08:58N 32°21' W 090°53'0 0.0
2018-Jun-18 08:28N 32°21' W 090°53'0 0.0
2018-Jun-18 07:58N 32°21' W 090°53'0 0.0
2018-Jun-18 07:28N 32°21' W 090°53'0 0.0
2018-Jun-18 06:58N 32°21' W 090°53'0 0.0
2018-Jun-18 06:19N 32°21' W 090°53'0 0.0
2018-Jun-18 05:58N 32°21' W 090°53'0 0.0
2018-Jun-18 05:28N 32°21' W 090°53'0 0.0
2018-Jun-18 04:58N 32°21' W 090°53'0 0.0
2018-Jun-18 04:28N 32°21' W 090°53'0 0.0
2018-Jun-18 03:58N 32°21' W 090°53'0 0.0
2018-Jun-18 03:28N 32°21' W 090°53'0 0.0
2018-Jun-18 02:58N 32°21' W 090°53'0 0.0
2018-Jun-18 02:28N 32°21' W 090°53'0 0.0
2018-Jun-18 01:58N 32°21' W 090°53'0 0.0
2018-Jun-18 01:28N 32°21' W 090°53'0 0.0
2018-Jun-18 00:58N 32°21' W 090°53'0 0.0
2018-Jun-18 00:28N 32°21' W 090°53'0 0.0
2018-Jun-17 23:58N 32°21' W 090°53'0 0.0
2018-Jun-17 23:28N 32°21' W 090°53'0 0.0
2018-Jun-17 22:58N 32°21' W 090°53'0 0.0
2018-Jun-17 22:28N 32°21' W 090°53'0 0.0
2018-Jun-17 21:58N 32°21' W 090°53'0 0.0
2018-Jun-17 21:28N 32°21' W 090°53'0 0.0
2018-Jun-17 20:58N 32°21' W 090°53'0 0.0
2018-Jun-17 20:28N 32°21' W 090°53'0 0.0
2018-Jun-17 19:58N 32°21' W 090°53'0 0.0
2018-Jun-17 19:28N 32°21' W 090°53'0 0.0
2018-Jun-17 18:58N 32°21' W 090°53'0 0.0
2018-Jun-17 18:28N 32°21' W 090°53'0 0.0
2018-Jun-17 17:58N 32°21' W 090°53'0 0.0
2018-Jun-17 17:28N 32°21' W 090°53'1 1.2
2018-Jun-17 17:00N 32°21' W 090°53'4 7.2
2018-Jun-17 16:30N 32°21' W 090°58'510.1
2018-Jun-17 16:00N 32°25' W 091°01'612.3
2018-Jun-17 15:31N 32°29' W 091°07'611.4
2018-Jun-17 15:00N 32°34' W 091°07'  
2018-Jun-14 04:34N 32°52' W 091°05'0 8.1
2018-Jun-14 04:30N 32°52' W 091°06'12 5.2
2018-Jun-14 02:09N 32°40' W 091°08'4 7.9
2018-Jun-14 01:36N 32°36' W 091°08'1 9.0
2018-Jun-14 01:27N 32°35' W 091°07'4 8.5
2018-Jun-14 01:00N 32°31' W 091°06'4 8.3
2018-Jun-14 00:30N 32°27' W 091°05'5 9.1
2018-Jun-14 00:00N 32°25' W 090°60'4 8.3
2018-Jun-13 23:30N 32°21' W 090°59'4 8.0
2018-Jun-13 23:00N 32°21' W 090°55'1 2.8
2018-Jun-13 22:30N 32°21' W 090°53'0 0.2
2018-Jun-13 22:01N 32°21' W 090°53'0 0.0
2018-Jun-13 21:28N 32°21' W 090°53'0 0.0
2018-Jun-13 20:58N 32°21' W 090°53'0 0.0
2018-Jun-13 20:28N 32°21' W 090°53'0 0.0
2018-Jun-13 19:58N 32°21' W 090°53'0 0.0
2018-Jun-13 19:28N 32°21' W 090°53'0 0.0
2018-Jun-13 19:01N 32°21' W 090°53'0 0.0
2018-Jun-13 18:28N 32°21' W 090°53'0 0.0
2018-Jun-13 17:58N 32°21' W 090°53'0 0.0
2018-Jun-13 17:28N 32°21' W 090°53'0 0.0
2018-Jun-13 16:58N 32°21' W 090°53'0 0.0
2018-Jun-13 16:28N 32°21' W 090°53'0 0.0
2018-Jun-13 15:58N 32°21' W 090°53'0 0.0
2018-Jun-13 15:28N 32°21' W 090°53'0 0.0
2018-Jun-13 14:58N 32°21' W 090°53'0 0.0
2018-Jun-13 14:30N 32°21' W 090°53'0 0.0
2018-Jun-13 13:58N 32°21' W 090°53'0 0.0
2018-Jun-13 13:31N 32°21' W 090°53'0 0.0
2018-Jun-13 13:00N 32°21' W 090°53'0 0.0
2018-Jun-13 12:24N 32°21' W 090°53'0 1.1
2018-Jun-13 12:00N 32°21' W 090°53'2 5.0
2018-Jun-13 11:30N 32°19' W 090°55'3 7.0
2018-Jun-13 11:00N 32°16' W 090°58'3 6.6
2018-Jun-13 10:30N 32°13' W 090°59'4 7.0
2018-Jun-13 10:00N 32°10' W 091°00'3 6.1
2018-Jun-13 09:30N 32°07' W 091°02'3 6.4
2018-Jun-13 09:00N 32°08' W 091°06'4 6.1
2018-Jun-13 08:24N 32°05' W 091°04'3 6.8
2018-Jun-13 08:00N 32°02' W 091°04'4 7.5
2018-Jun-13 07:30N 31°59' W 091°07'4 7.2
2018-Jun-13 06:59N 31°58' W 091°11'3 7.2
2018-Jun-13 06:30N 31°55' W 091°12'4 7.4
2018-Jun-13 06:00N 31°52' W 091°15'4 7.5
2018-Jun-13 05:30N 31°51' W 091°19'4 6.8
2018-Jun-13 04:51N 31°47' W 091°21'3 7.3
2018-Jun-13 04:30N 31°45' W 091°22'  

Dump ship's entire track history